createdAt,value
2018-06-09T00:01:01.745Z,21.91
2018-06-09T00:02:07.913Z,21.92
2018-06-09T00:03:13.794Z,21.88
2018-06-09T00:04:20.006Z,21.87
2018-06-09T00:05:26.201Z,21.85
2018-06-09T00:06:32.443Z,21.88
2018-06-09T00:07:38.661Z,21.87
2018-06-09T00:08:44.921Z,21.88
2018-06-09T00:09:50.522Z,21.89
2018-06-09T00:10:56.417Z,21.91
2018-06-09T00:12:02.688Z,21.88
2018-06-09T00:13:09.747Z,21.86
2018-06-09T00:14:15.902Z,21.85
2018-06-09T00:15:22.048Z,21.83
2018-06-09T00:16:28.236Z,21.85
2018-06-09T00:17:34.489Z,21.83
2018-06-09T00:18:40.744Z,21.84
2018-06-09T00:19:46.652Z,21.85
2018-06-09T00:20:52.792Z,21.86
2018-06-09T00:21:58.964Z,21.87
2018-06-09T00:23:04.833Z,21.86
2018-06-09T00:24:11.084Z,21.86
2018-06-09T00:25:17.253Z,21.88
2018-06-09T00:26:23.476Z,21.85
2018-06-09T00:27:29.675Z,21.81
2018-06-09T00:28:35.923Z,21.80
2018-06-09T00:29:42.126Z,21.79
2018-06-09T00:30:48.342Z,21.75
2018-06-09T00:31:54.580Z,21.74
2018-06-09T00:33:00.810Z,21.73
2018-06-09T00:34:07.120Z,21.71
2018-06-09T00:35:13.374Z,21.72
2018-06-09T00:36:19.525Z,21.73
2018-06-09T00:37:25.738Z,21.74
2018-06-09T00:38:32.003Z,21.72
2018-06-09T00:39:38.211Z,21.77
2018-06-09T00:40:49.690Z,21.77
2018-06-09T00:41:55.573Z,21.78
2018-06-09T00:43:01.816Z,21.76
2018-06-09T00:44:07.693Z,21.78
2018-06-09T00:45:13.988Z,21.91
2018-06-09T00:46:20.163Z,21.84
2018-06-09T00:47:26.410Z,21.82
2018-06-09T00:48:33.619Z,21.93
2018-06-09T00:49:40.046Z,21.83
2018-06-09T00:50:46.278Z,21.77
2018-06-09T00:51:52.467Z,21.73
2018-06-09T00:52:58.710Z,21.75
2018-06-09T00:54:04.931Z,21.80
2018-06-09T00:55:11.168Z,21.66
2018-06-09T00:57:56.979Z,21.46
2018-06-09T00:59:04.895Z,21.50
2018-06-09T01:00:10.786Z,21.44
2018-06-09T01:01:16.361Z,21.51
2018-06-09T01:02:22.494Z,21.52
2018-06-09T01:03:28.777Z,21.44
2018-06-09T01:04:35.007Z,21.17
2018-06-09T01:05:41.248Z,21.18
2018-06-09T01:06:47.506Z,21.18
2018-06-09T01:07:53.395Z,21.17
2018-06-09T01:08:59.607Z,21.25
2018-06-09T01:10:05.476Z,21.34
2018-06-09T01:11:11.074Z,21.37
2018-06-09T01:12:17.282Z,21.33
2018-06-09T01:13:23.507Z,21.29
2018-06-09T01:14:29.423Z,21.41
2018-06-09T01:15:35.368Z,21.36
2018-06-09T01:16:41.611Z,21.40
2018-06-09T01:17:47.491Z,21.35
2018-06-09T01:18:53.734Z,21.35
2018-06-09T01:19:59.956Z,21.29
2018-06-09T01:21:05.535Z,21.25
2018-06-09T01:22:11.730Z,21.19
2018-06-09T01:23:17.977Z,21.19
2018-06-09T01:24:24.251Z,21.18
2018-06-09T01:25:30.447Z,21.27
2018-06-09T01:26:36.686Z,21.31
2018-06-09T01:27:42.881Z,21.37
2018-06-09T01:28:49.079Z,21.36
2018-06-09T01:29:55.254Z,21.54
2018-06-09T01:31:01.430Z,21.45
2018-06-09T01:32:07.742Z,21.44
2018-06-09T01:33:13.891Z,21.39
2018-06-09T01:34:20.096Z,21.38
2018-06-09T01:35:26.041Z,21.30
2018-06-09T01:36:32.231Z,21.25
2018-06-09T01:37:38.406Z,21.32
2018-06-09T01:38:44.678Z,21.19
2018-06-09T01:39:50.892Z,21.16
2018-06-09T01:40:57.141Z,21.24
2018-06-09T01:42:02.999Z,21.30
2018-06-09T01:43:09.232Z,21.04
2018-06-09T01:44:15.400Z,21.04
2018-06-09T01:45:21.626Z,21.07
2018-06-09T01:46:27.830Z,21.24
2018-06-09T01:47:34.048Z,21.32
2018-06-09T01:48:40.259Z,21.39
2018-06-09T01:49:46.505Z,21.23
2018-06-09T01:50:52.657Z,21.25
2018-06-09T01:51:58.809Z,21.32
2018-06-09T01:53:05.024Z,21.30
2018-06-09T01:54:11.258Z,21.19
2018-06-09T01:55:17.412Z,21.05
2018-06-09T01:56:23.608Z,21.06
2018-06-09T01:57:29.820Z,21.06
2018-06-09T01:58:36.100Z,21.00
2018-06-09T01:59:42.355Z,20.94
2018-06-09T02:00:48.596Z,20.85
2018-06-09T02:01:54.522Z,20.82
2018-06-09T02:03:00.469Z,20.82
2018-06-09T02:04:07.662Z,20.82
2018-06-09T02:05:13.931Z,20.93
2018-06-09T02:06:19.856Z,21.06
2018-06-09T02:07:26.219Z,20.88
2018-06-09T02:08:32.408Z,20.93
2018-06-09T02:09:39.467Z,20.81
2018-06-09T02:10:45.692Z,20.75
2018-06-09T02:11:51.920Z,20.63
2018-06-09T02:12:58.122Z,20.54
2018-06-09T02:14:04.326Z,20.45
2018-06-09T02:15:10.532Z,20.33
2018-06-09T02:16:16.719Z,20.22
2018-06-09T02:17:22.950Z,20.17
2018-06-09T02:18:29.132Z,20.16
2018-06-09T02:19:35.445Z,20.13
2018-06-09T02:20:41.635Z,20.06
2018-06-09T02:21:47.807Z,20.03
2018-06-09T02:22:53.950Z,20.02
2018-06-09T02:24:00.139Z,19.98
2018-06-09T02:25:06.386Z,19.97
2018-06-09T02:26:12.593Z,19.94
2018-06-09T02:27:18.803Z,19.95
2018-06-09T02:28:24.993Z,19.94
2018-06-09T02:29:31.251Z,19.92
2018-06-09T02:30:37.532Z,19.88
2018-06-09T02:31:43.702Z,19.88
2018-06-09T02:32:49.874Z,19.90
2018-06-09T02:33:56.085Z,19.82
2018-06-09T02:35:01.985Z,19.80
2018-06-09T02:36:08.155Z,19.80
2018-06-09T02:37:14.091Z,19.80
2018-06-09T02:38:20.332Z,19.82
2018-06-09T02:39:26.524Z,19.82
2018-06-09T02:40:32.670Z,19.83
2018-06-09T02:41:38.864Z,19.86
2018-06-09T02:42:45.071Z,19.87
2018-06-09T02:43:51.291Z,19.91
2018-06-09T02:44:57.524Z,19.78
2018-06-09T02:46:03.715Z,19.66
2018-06-09T02:47:09.908Z,19.74
2018-06-09T02:48:16.155Z,19.86
2018-06-09T02:49:22.334Z,19.81
2018-06-09T02:50:28.539Z,19.66
2018-06-09T02:51:34.784Z,19.52
2018-06-09T02:52:40.691Z,19.44
2018-06-09T02:53:46.839Z,19.42
2018-06-09T02:54:53.056Z,19.34
2018-06-09T02:55:59.783Z,19.31
2018-06-09T02:57:06.977Z,19.26
2018-06-09T02:58:13.487Z,19.23
2018-06-09T02:59:19.664Z,19.07
2018-06-09T03:00:25.935Z,19.01
2018-06-09T03:01:32.222Z,19.00
2018-06-09T03:02:38.410Z,19.05
2018-06-09T03:03:44.574Z,19.13
2018-06-09T03:04:50.733Z,19.18
2018-06-09T03:05:56.988Z,19.19
2018-06-09T03:07:03.198Z,19.23
2018-06-09T03:08:09.365Z,19.23
2018-06-09T03:09:15.255Z,19.26
2018-06-09T03:10:21.467Z,19.27
2018-06-09T03:11:27.618Z,19.29
2018-06-09T03:12:33.817Z,19.28
2018-06-09T03:13:40.069Z,19.29
2018-06-09T03:14:46.273Z,19.21
2018-06-09T03:15:52.527Z,19.15
2018-06-09T03:16:58.455Z,19.18
2018-06-09T03:18:04.359Z,19.23
2018-06-09T03:19:10.548Z,19.24
2018-06-09T03:20:16.779Z,19.27
2018-06-09T03:21:22.977Z,19.32
2018-06-09T03:22:29.177Z,19.35
2018-06-09T03:23:35.341Z,19.37
2018-06-09T03:24:41.535Z,19.39
2018-06-09T03:25:47.474Z,19.45
2018-06-09T03:26:53.595Z,19.43
2018-06-09T03:27:59.781Z,19.45
2018-06-09T03:29:06.060Z,19.49
2018-06-09T03:30:12.277Z,19.55
2018-06-09T03:31:18.465Z,19.64
2018-06-09T03:32:24.594Z,19.57
2018-06-09T03:33:30.815Z,19.56
2018-06-09T03:34:36.994Z,19.56
2018-06-09T03:35:43.174Z,19.53
2018-06-09T03:36:49.355Z,19.56
2018-06-09T03:37:55.514Z,19.58
2018-06-09T03:39:01.686Z,19.64
2018-06-09T03:40:07.248Z,19.63
2018-06-09T03:41:13.588Z,19.61
2018-06-09T03:42:19.783Z,19.64
2018-06-09T03:43:26.073Z,19.58
2018-06-09T03:44:32.439Z,19.60
2018-06-09T03:45:38.618Z,19.58
2018-06-09T03:46:44.844Z,19.62
2018-06-09T03:47:50.999Z,19.62
2018-06-09T03:48:57.199Z,19.64
2018-06-09T03:50:03.594Z,19.66
2018-06-09T03:51:09.799Z,19.68
2018-06-09T03:52:16.002Z,19.69
2018-06-09T03:53:22.171Z,19.74
2018-06-09T03:54:28.362Z,19.74
2018-06-09T03:55:34.568Z,19.74
2018-06-09T03:56:40.855Z,19.74
2018-06-09T03:57:47.180Z,19.72
2018-06-09T03:58:53.416Z,19.73
2018-06-09T03:59:59.612Z,19.84
2018-06-09T04:01:05.563Z,19.94
2018-06-09T04:02:11.746Z,19.93
2018-06-09T04:03:17.967Z,20.01
2018-06-09T04:04:24.237Z,20.11
2018-06-09T04:05:30.455Z,20.06
2018-06-09T04:06:36.619Z,19.98
2018-06-09T04:07:42.926Z,20.01
2018-06-09T04:08:49.202Z,20.05
2018-06-09T04:09:55.564Z,20.08
2018-06-09T04:11:01.829Z,20.18
2018-06-09T04:12:08.028Z,20.21
2018-06-09T04:13:14.228Z,20.16
2018-06-09T04:14:20.534Z,20.16
2018-06-09T04:15:26.412Z,20.18
2018-06-09T04:16:32.718Z,20.17
2018-06-09T04:17:38.917Z,20.23
2018-06-09T04:18:45.131Z,20.25
2018-06-09T04:19:51.342Z,20.27
2018-06-09T04:20:57.583Z,20.32
2018-06-09T04:22:03.837Z,20.34
2018-06-09T04:23:10.037Z,20.36
2018-06-09T04:24:16.201Z,20.41
2018-06-09T04:25:22.405Z,20.43
2018-06-09T04:26:28.646Z,20.46
2018-06-09T04:27:34.900Z,20.46
2018-06-09T04:28:41.143Z,20.45
2018-06-09T04:29:47.328Z,20.45
2018-06-09T04:30:53.220Z,20.43
2018-06-09T04:31:59.468Z,20.47
2018-06-09T04:33:05.652Z,20.47
2018-06-09T04:34:11.825Z,20.47
2018-06-09T04:35:18.126Z,20.47
2018-06-09T04:36:24.315Z,20.46
2018-06-09T04:37:30.481Z,20.48
2018-06-09T04:38:36.729Z,20.52
2018-06-09T04:39:42.927Z,20.53
2018-06-09T04:40:49.107Z,20.55
2018-06-09T04:41:55.308Z,20.59
2018-06-09T04:43:01.100Z,20.61
2018-06-09T04:44:07.267Z,20.65
2018-06-09T04:45:13.513Z,20.65
2018-06-09T04:46:19.776Z,20.66
2018-06-09T04:47:25.956Z,20.69
2018-06-09T04:48:32.153Z,20.70
2018-06-09T04:49:38.354Z,20.72
2018-06-09T04:50:44.559Z,20.75
2018-06-09T04:51:50.799Z,20.75
2018-06-09T04:52:56.981Z,20.77
2018-06-09T04:54:03.190Z,20.81
2018-06-09T04:55:09.328Z,20.86
2018-06-09T04:56:15.511Z,20.88
2018-06-09T04:57:21.768Z,20.93
2018-06-09T04:58:28.025Z,20.95
2018-06-09T04:59:34.327Z,20.95
2018-06-09T05:00:40.501Z,20.95
2018-06-09T05:01:46.722Z,20.96
2018-06-09T05:02:52.919Z,20.99
2018-06-09T05:03:59.131Z,21.05
2018-06-09T05:05:04.988Z,21.05
2018-06-09T05:06:11.254Z,21.08
2018-06-09T05:07:17.538Z,21.10
2018-06-09T05:08:23.893Z,21.13
2018-06-09T05:09:30.074Z,21.14
2018-06-09T05:10:36.255Z,21.15
2018-06-09T05:11:42.626Z,21.17
2018-06-09T05:12:48.887Z,21.18
2018-06-09T05:13:55.054Z,21.21
2018-06-09T05:15:01.265Z,21.22
2018-06-09T05:16:07.226Z,21.25
2018-06-09T05:17:13.419Z,21.26
2018-06-09T05:18:19.273Z,21.24
2018-06-09T05:19:25.654Z,21.22
2018-06-09T05:20:31.866Z,21.29
2018-06-09T05:21:38.019Z,21.36
2018-06-09T05:22:44.227Z,21.42
2018-06-09T05:23:50.624Z,21.49
2018-06-09T05:24:56.809Z,21.54
2018-06-09T05:26:03.684Z,21.53
2018-06-09T05:27:09.911Z,21.52
2018-06-09T05:28:16.117Z,21.59
2018-06-09T05:29:22.631Z,21.58
2018-06-09T05:30:29.137Z,21.60
2018-06-09T05:31:35.391Z,21.70
2018-06-09T05:32:41.959Z,21.77
2018-06-09T05:33:48.154Z,21.81
2018-06-09T05:34:54.389Z,21.78
2018-06-09T05:36:00.609Z,21.74
2018-06-09T05:37:06.480Z,21.76
2018-06-09T05:38:12.681Z,21.75
2018-06-09T05:39:18.849Z,21.72
2018-06-09T05:40:25.000Z,21.76
2018-06-09T05:41:31.197Z,21.83
2018-06-09T05:42:37.430Z,21.88
2018-06-09T05:43:43.816Z,21.89
2018-06-09T05:44:50.101Z,21.94
2018-06-09T05:45:56.391Z,21.95
2018-06-09T05:47:02.712Z,21.93
2018-06-09T05:48:09.162Z,21.93
2018-06-09T05:49:15.709Z,21.94
2018-06-09T05:50:21.921Z,22.00
2018-06-09T05:51:28.136Z,22.01
2018-06-09T05:52:34.365Z,22.03
2018-06-09T05:53:40.571Z,22.03
2018-06-09T05:54:46.807Z,22.06
2018-06-09T05:55:53.183Z,22.10
2018-06-09T05:56:59.477Z,22.15
2018-06-09T05:58:05.697Z,22.20
2018-06-09T05:59:12.329Z,22.26
2018-06-09T06:00:18.648Z,22.46
2018-06-09T06:01:28.166Z,22.46
2018-06-09T06:02:34.998Z,22.41
2018-06-09T06:03:41.221Z,22.33
2018-06-09T06:04:47.552Z,22.31
2018-06-09T06:05:54.333Z,22.31
2018-06-09T06:07:00.723Z,22.34
2018-06-09T06:09:12.277Z,22.51
2018-06-09T06:10:18.730Z,22.54
2018-06-09T06:11:24.892Z,22.53
2018-06-09T06:12:32.689Z,22.48
2018-06-09T06:13:39.616Z,22.43
2018-06-09T06:14:46.018Z,22.45
2018-06-09T06:15:52.016Z,22.47
2018-06-09T06:16:58.298Z,22.49
2018-06-09T06:18:04.727Z,22.49
2018-06-09T06:19:11.089Z,22.49
2018-06-09T06:20:17.723Z,22.45
2018-06-09T06:21:24.229Z,22.47
2018-06-09T06:22:30.690Z,22.48
2018-06-09T06:23:36.701Z,22.48
2018-06-09T06:24:43.233Z,22.53
2018-06-09T06:25:49.752Z,22.59
2018-06-09T06:26:56.121Z,22.67
2018-06-09T06:28:02.489Z,22.68
2018-06-09T06:29:09.063Z,22.69
2018-06-09T06:30:15.347Z,22.69
2018-06-09T06:31:21.764Z,22.75
2018-06-09T06:32:28.073Z,22.81
2018-06-09T06:33:34.023Z,22.99
2018-06-09T06:34:40.199Z,23.04
2018-06-09T06:35:46.509Z,23.05
2018-06-09T06:36:52.815Z,23.07
2018-06-09T06:37:59.123Z,23.15
2018-06-09T06:39:04.947Z,23.13
2018-06-09T06:40:10.976Z,23.17
2018-06-09T06:41:17.453Z,23.19
2018-06-09T06:42:23.756Z,23.25
2018-06-09T06:43:30.106Z,23.30
2018-06-09T06:44:36.372Z,23.33
2018-06-09T06:45:42.411Z,23.37
2018-06-09T06:46:48.856Z,23.41
2018-06-09T06:47:55.247Z,23.49
2018-06-09T06:49:01.593Z,23.52
2018-06-09T06:50:07.672Z,23.50
2018-06-09T06:51:14.046Z,23.56
2018-06-09T06:52:21.028Z,23.61
2018-06-09T06:53:27.429Z,23.64
2018-06-09T06:54:33.615Z,23.73
2018-06-09T06:55:40.064Z,23.81
2018-06-09T06:56:46.067Z,23.86
2018-06-09T06:57:52.072Z,23.92
2018-06-09T06:58:58.351Z,23.93
2018-06-09T07:00:03.936Z,24.09
2018-06-09T07:01:09.914Z,24.16
2018-06-09T07:02:15.949Z,24.26
2018-06-09T07:03:22.097Z,24.26
2018-06-09T07:04:28.345Z,24.47
2018-06-09T07:05:34.771Z,24.48
2018-06-09T07:06:40.886Z,24.50
2018-06-09T07:07:47.293Z,24.38
2018-06-09T07:08:53.448Z,24.21
2018-06-09T07:09:59.689Z,24.19
2018-06-09T07:11:05.910Z,24.20
2018-06-09T07:12:11.659Z,24.16
2018-06-09T07:13:18.532Z,24.15
2018-06-09T07:14:24.630Z,24.17
2018-06-09T07:15:30.576Z,24.18
2018-06-09T07:16:36.435Z,24.19
2018-06-09T07:17:42.384Z,24.16
2018-06-09T07:18:48.360Z,24.16
2018-06-09T07:19:54.328Z,24.15
2018-06-09T07:21:00.259Z,24.11
2018-06-09T07:22:06.135Z,24.16
2018-06-09T07:23:12.051Z,24.16
2018-06-09T07:24:18.726Z,24.23
2018-06-09T07:25:24.854Z,24.31
2018-06-09T07:26:30.744Z,24.43
2018-06-09T07:27:36.677Z,24.38
2018-06-09T07:28:44.341Z,24.41
2018-06-09T07:29:51.088Z,24.43
2018-06-09T07:30:56.632Z,24.55
2018-06-09T07:32:02.278Z,24.64
2018-06-09T07:33:08.194Z,24.80
2018-06-09T07:34:14.463Z,25.03
2018-06-09T07:35:20.379Z,25.13
2018-06-09T07:36:26.310Z,25.15
2018-06-09T07:37:32.335Z,25.05
2018-06-09T07:38:38.272Z,24.94
2018-06-09T07:39:44.180Z,24.94
2018-06-09T07:40:50.069Z,24.97
2018-06-09T07:41:56.077Z,25.03
2018-06-09T07:43:01.975Z,25.22
2018-06-09T07:44:07.902Z,25.23
2018-06-09T07:45:13.843Z,25.21
2018-06-09T07:46:19.764Z,25.18
2018-06-09T07:47:25.730Z,25.16
2018-06-09T07:48:31.363Z,25.25
2018-06-09T07:49:37.313Z,25.38
2018-06-09T07:50:43.216Z,25.61
2018-06-09T07:51:49.119Z,25.66
2018-06-09T07:52:55.109Z,25.78
2018-06-09T07:54:01.051Z,25.97
2018-06-09T07:55:06.503Z,25.90
2018-06-09T07:56:12.423Z,26.05
2018-06-09T07:57:18.342Z,26.18
2018-06-09T07:58:24.306Z,26.24
2018-06-09T07:59:30.245Z,26.20
2018-06-09T08:00:36.375Z,26.27
2018-06-09T08:01:42.263Z,26.39
2018-06-09T08:02:48.203Z,26.45
2018-06-09T08:03:54.071Z,26.40
2018-06-09T08:05:00.051Z,26.31
2018-06-09T08:06:06.030Z,26.41
2018-06-09T08:07:11.957Z,26.52
2018-06-09T08:08:17.584Z,26.42
2018-06-09T08:09:23.515Z,26.25
2018-06-09T08:10:30.204Z,26.26
2018-06-09T08:11:36.812Z,26.28
2018-06-09T08:12:42.684Z,26.40
2018-06-09T08:13:48.602Z,26.54
2018-06-09T08:14:54.498Z,26.68
2018-06-09T08:16:00.495Z,26.60
2018-06-09T08:17:06.415Z,26.60
2018-06-09T08:18:12.332Z,26.40
2018-06-09T08:19:18.309Z,26.24
2018-06-09T08:20:24.322Z,26.21
2018-06-09T08:21:30.233Z,26.26
2018-06-09T08:22:36.177Z,26.32
2018-06-09T08:23:42.094Z,26.35
2018-06-09T08:24:48.067Z,26.37
2018-06-09T08:25:53.982Z,26.41
2018-06-09T08:26:59.898Z,26.43
2018-06-09T08:28:05.503Z,26.57
2018-06-09T08:29:11.424Z,26.68
2018-06-09T08:30:17.571Z,26.83
2018-06-09T08:31:23.483Z,27.03
2018-06-09T08:32:29.467Z,27.05
2018-06-09T08:33:35.357Z,27.15
2018-06-09T08:34:41.292Z,27.08
2018-06-09T08:35:48.840Z,27.22
2018-06-09T08:36:56.333Z,27.26
2018-06-09T08:38:02.273Z,27.44
2018-06-09T08:39:07.910Z,27.58
2018-06-09T08:40:13.941Z,27.57
2018-06-09T08:41:19.883Z,27.45
2018-06-09T08:42:25.787Z,27.36
2018-06-09T08:43:31.673Z,27.33
2018-06-09T08:44:37.636Z,27.24
2018-06-09T08:45:43.562Z,27.41
2018-06-09T08:46:49.500Z,27.45
2018-06-09T08:47:55.470Z,27.26
2018-06-09T08:49:01.427Z,27.25
2018-06-09T08:50:07.346Z,27.29
2018-06-09T08:51:13.268Z,27.53
2018-06-09T08:52:19.155Z,27.64
2018-06-09T08:53:25.011Z,27.87
2018-06-09T08:54:30.601Z,28.01
2018-06-09T08:55:36.662Z,28.13
2018-06-09T08:56:42.616Z,28.16
2018-06-09T08:57:48.461Z,27.82
2018-06-09T08:58:54.314Z,27.74
2018-06-09T09:00:00.259Z,27.83
2018-06-09T09:01:06.181Z,27.99
2018-06-09T09:02:12.254Z,28.14
2018-06-09T09:03:18.192Z,28.30
2018-06-09T09:04:24.086Z,28.37
2018-06-09T09:05:29.984Z,28.29
2018-06-09T09:06:35.920Z,27.97
2018-06-09T09:07:41.835Z,28.07
2018-06-09T09:08:47.748Z,28.04
2018-06-09T09:09:53.642Z,28.20
2018-06-09T09:10:59.544Z,28.33
2018-06-09T09:12:05.471Z,28.31
2018-06-09T09:13:11.141Z,28.30
2018-06-09T09:14:17.003Z,28.42
2018-06-09T09:15:22.877Z,28.45
2018-06-09T09:16:28.844Z,28.47
2018-06-09T09:17:34.727Z,28.46
2018-06-09T09:18:40.637Z,28.54
2018-06-09T09:19:46.567Z,28.61
2018-06-09T09:20:52.138Z,28.69
2018-06-09T09:21:58.017Z,28.81
2018-06-09T09:23:04.012Z,28.93
2018-06-09T09:24:09.857Z,28.92
2018-06-09T09:25:15.786Z,29.03
2018-06-09T09:26:21.707Z,29.04
2018-06-09T09:27:27.597Z,29.13
2018-06-09T09:28:33.501Z,29.09
2018-06-09T09:29:39.462Z,29.22
2018-06-09T09:30:45.490Z,29.29
2018-06-09T09:31:51.462Z,29.47
2018-06-09T09:32:57.446Z,29.44
2018-06-09T09:34:03.443Z,29.18
2018-06-09T09:35:09.121Z,29.38
2018-06-09T09:36:15.091Z,29.47
2018-06-09T09:37:20.992Z,29.50
2018-06-09T09:38:26.892Z,29.52
2018-06-09T09:39:32.800Z,29.37
2018-06-09T09:40:38.723Z,29.34
2018-06-09T09:41:44.659Z,29.45
2018-06-09T09:42:50.582Z,29.67
2018-06-09T09:43:56.504Z,29.77
2018-06-09T09:45:02.421Z,29.83
2018-06-09T09:46:08.501Z,29.81
2018-06-09T09:47:14.083Z,29.77
2018-06-09T09:48:20.021Z,29.69
2018-06-09T09:49:25.959Z,29.72
2018-06-09T09:50:31.910Z,29.79
2018-06-09T09:51:37.839Z,29.70
2018-06-09T09:52:43.534Z,29.60
2018-06-09T09:53:49.489Z,29.64
2018-06-09T09:54:55.499Z,29.59
2018-06-09T09:56:01.444Z,29.35
2018-06-09T09:57:07.366Z,29.36
2018-06-09T09:58:13.313Z,29.34
2018-06-09T09:59:19.361Z,29.24
2018-06-09T10:00:25.070Z,29.38
2018-06-09T10:01:30.987Z,29.44
2018-06-09T10:02:36.881Z,29.77
2018-06-09T10:03:42.786Z,29.91
2018-06-09T10:04:48.728Z,29.74
2018-06-09T10:05:54.712Z,29.82
2018-06-09T10:07:00.659Z,29.53
2018-06-09T10:08:06.215Z,29.63
2018-06-09T10:09:12.102Z,29.64
2018-06-09T10:10:18.125Z,29.58
2018-06-09T10:11:24.181Z,29.66
2018-06-09T10:12:30.142Z,29.68
2018-06-09T10:13:36.043Z,29.71
2018-06-09T10:14:41.929Z,29.74
2018-06-09T10:15:47.877Z,29.71
2018-06-09T10:16:53.509Z,29.89
2018-06-09T10:17:59.443Z,29.90
2018-06-09T10:19:04.987Z,29.82
2018-06-09T10:20:10.868Z,29.83
2018-06-09T10:21:16.815Z,29.83
2018-06-09T10:22:22.776Z,30.08
2018-06-09T10:23:28.743Z,29.87
2018-06-09T10:24:34.657Z,29.97
2018-06-09T10:25:40.596Z,30.08
2018-06-09T10:26:46.498Z,30.26
2018-06-09T10:27:52.410Z,29.93
2018-06-09T10:28:58.387Z,29.93
2018-06-09T10:30:03.943Z,29.86
2018-06-09T10:31:09.933Z,30.05
2018-06-09T10:32:15.846Z,30.21
2018-06-09T10:33:21.804Z,30.23
2018-06-09T10:34:27.752Z,30.42
2018-06-09T10:35:33.684Z,30.30
2018-06-09T10:36:39.684Z,30.35
2018-06-09T10:37:45.632Z,30.43
2018-06-09T10:38:51.549Z,30.42
2018-06-09T10:39:57.460Z,30.60
2018-06-09T10:41:03.439Z,30.69
2018-06-09T10:42:09.414Z,30.70
2018-06-09T10:43:16.385Z,30.62
2018-06-09T10:44:22.327Z,30.70
2018-06-09T10:45:28.247Z,30.98
2018-06-09T10:46:34.205Z,30.81
2018-06-09T10:47:40.271Z,30.78
2018-06-09T10:48:46.156Z,30.83
2018-06-09T10:49:52.092Z,30.71
2018-06-09T10:50:58.056Z,30.68
2018-06-09T10:52:03.681Z,30.54
2018-06-09T10:53:09.591Z,30.50
2018-06-09T10:54:15.568Z,30.52
2018-06-09T10:55:21.498Z,30.39
2018-06-09T10:56:27.399Z,30.39
2018-06-09T10:57:33.352Z,30.48
2018-06-09T10:58:39.525Z,30.42
2018-06-09T10:59:45.506Z,30.43
2018-06-09T11:00:51.499Z,30.55
2018-06-09T11:01:57.434Z,30.28
2018-06-09T11:03:03.367Z,30.09
2018-06-09T11:04:09.304Z,30.22
2018-06-09T11:05:15.548Z,30.41
2018-06-09T11:06:21.548Z,30.51
2018-06-09T11:07:27.454Z,30.76
2018-06-09T11:08:33.374Z,30.86
2018-06-09T11:09:39.291Z,30.64
2018-06-09T11:10:44.986Z,30.67
2018-06-09T11:11:50.953Z,30.92
2018-06-09T11:12:56.814Z,30.89
2018-06-09T11:14:02.720Z,30.78
2018-06-09T11:15:08.708Z,30.74
2018-06-09T11:16:14.660Z,30.82
2018-06-09T11:17:20.648Z,31.01
2018-06-09T11:18:26.518Z,31.05
2018-06-09T11:19:32.426Z,30.98
2018-06-09T11:20:38.328Z,30.94
2018-06-09T11:21:44.288Z,30.80
2018-06-09T11:22:50.289Z,30.46
2018-06-09T11:23:55.854Z,30.29
2018-06-09T11:25:01.808Z,30.11
2018-06-09T11:26:07.702Z,30.04
2018-06-09T11:27:13.605Z,30.02
2018-06-09T11:28:19.523Z,30.09
2018-06-09T11:29:25.468Z,30.27
2018-06-09T11:30:31.370Z,30.50
2018-06-09T11:31:37.370Z,30.80
2018-06-09T11:32:43.285Z,30.67
2018-06-09T11:33:49.167Z,30.81
2018-06-09T11:34:55.058Z,30.97
2018-06-09T11:36:00.958Z,31.24
2018-06-09T11:37:06.906Z,31.14
2018-06-09T11:38:12.984Z,31.29
2018-06-09T11:39:18.957Z,31.48
2018-06-09T11:40:24.868Z,31.57
2018-06-09T11:41:30.797Z,31.45
2018-06-09T11:42:36.449Z,31.29
2018-06-09T11:43:42.378Z,31.37
2018-06-09T11:44:48.318Z,31.13
2018-06-09T11:45:54.262Z,31.22
2018-06-09T11:47:00.465Z,31.26
2018-06-09T11:48:06.435Z,31.28
2018-06-09T11:49:12.358Z,31.24
2018-06-09T11:50:18.370Z,31.36
2018-06-09T11:51:24.265Z,31.43
2018-06-09T11:52:30.191Z,31.65
2018-06-09T11:53:36.084Z,31.47
2018-06-09T11:54:42.013Z,31.75
2018-06-09T11:55:47.940Z,31.87
2018-06-09T11:56:53.927Z,31.60
2018-06-09T11:57:59.847Z,31.46
2018-06-09T11:59:05.535Z,31.65
2018-06-09T12:00:11.457Z,31.60
2018-06-09T12:01:17.424Z,31.62
2018-06-09T12:02:23.351Z,31.77
2018-06-09T12:03:29.307Z,31.82
2018-06-09T12:04:35.248Z,31.84
2018-06-09T12:05:41.205Z,31.94
2018-06-09T12:06:47.288Z,31.63
2018-06-09T12:07:53.295Z,31.34
2018-06-09T12:08:59.319Z,31.22
2018-06-09T12:10:04.937Z,31.09
2018-06-09T12:11:10.876Z,31.10
2018-06-09T12:12:16.923Z,31.11
2018-06-09T12:13:22.563Z,30.99
2018-06-09T12:14:29.983Z,30.82
2018-06-09T12:15:35.950Z,30.64
2018-06-09T12:16:41.978Z,30.62
2018-06-09T12:17:48.258Z,30.79
2018-06-09T12:18:54.325Z,31.08
2018-06-09T12:20:00.420Z,31.30
2018-06-09T12:21:06.497Z,31.43
2018-06-09T12:22:12.409Z,31.40
2018-06-09T12:23:18.434Z,31.50
2018-06-09T12:24:24.369Z,31.78
2018-06-09T12:25:30.271Z,31.38
2018-06-09T12:26:36.237Z,31.14
2018-06-09T12:27:42.201Z,30.98
2018-06-09T12:28:48.082Z,30.82
2018-06-09T12:29:53.977Z,30.82
2018-06-09T12:30:59.951Z,30.79
2018-06-09T12:32:05.897Z,30.74
2018-06-09T12:33:11.899Z,30.54
2018-06-09T12:34:17.818Z,30.54
2018-06-09T12:35:23.784Z,30.50
2018-06-09T12:36:29.641Z,30.44
2018-06-09T12:37:35.610Z,30.39
2018-06-09T12:38:41.599Z,30.42
2018-06-09T12:39:47.571Z,30.44
2018-06-09T12:40:53.486Z,30.49
2018-06-09T12:41:59.407Z,30.47
2018-06-09T12:43:05.042Z,30.43
2018-06-09T12:44:10.990Z,30.36
2018-06-09T12:45:16.934Z,30.40
2018-06-09T12:46:22.816Z,30.44
2018-06-09T12:47:28.751Z,30.46
2018-06-09T12:48:34.693Z,30.46
2018-06-09T12:49:40.825Z,30.49
2018-06-09T12:50:46.766Z,30.60
2018-06-09T12:51:52.658Z,30.73
2018-06-09T12:52:58.605Z,31.04
2018-06-09T12:54:04.612Z,31.33
2018-06-09T12:55:10.556Z,31.59
2018-06-09T12:56:16.499Z,31.74
2018-06-09T12:57:22.406Z,31.71
2018-06-09T12:58:28.513Z,31.64
2018-06-09T12:59:34.438Z,31.41
2018-06-09T13:00:40.395Z,31.34
2018-06-09T13:01:46.402Z,31.20
2018-06-09T13:02:52.354Z,31.10
2018-06-09T13:03:58.227Z,31.03
2018-06-09T13:05:03.806Z,31.01
2018-06-09T13:06:09.816Z,31.02
2018-06-09T13:07:16.603Z,31.04
2018-06-09T13:08:22.515Z,31.13
2018-06-09T13:09:28.474Z,31.48
2018-06-09T13:10:34.441Z,31.73
2018-06-09T13:11:40.428Z,31.79
2018-06-09T13:12:46.336Z,31.84
2018-06-09T13:13:52.211Z,31.94
2018-06-09T13:14:58.129Z,32.12
2018-06-09T13:16:04.109Z,32.23
2018-06-09T13:17:10.100Z,32.43
2018-06-09T13:18:16.149Z,32.46
2018-06-09T13:19:22.042Z,32.35
2018-06-09T13:20:28.008Z,32.37
2018-06-09T13:21:33.998Z,32.14
2018-06-09T13:22:39.906Z,32.27
2018-06-09T13:23:45.882Z,32.22
2018-06-09T13:24:51.841Z,32.42
2018-06-09T13:25:57.926Z,32.63
2018-06-09T13:27:03.853Z,32.67
2018-06-09T13:28:09.521Z,32.59
2018-06-09T13:29:15.371Z,32.32
2018-06-09T13:30:21.337Z,32.09
2018-06-09T13:31:27.479Z,31.76
2018-06-09T13:32:33.350Z,31.73
2018-06-09T13:33:39.411Z,31.62
2018-06-09T13:34:45.454Z,31.60
2018-06-09T13:35:51.082Z,31.46
2018-06-09T13:36:57.083Z,31.39
2018-06-09T13:38:03.079Z,31.35
2018-06-09T13:39:09.087Z,31.23
2018-06-09T13:40:15.060Z,31.18
2018-06-09T13:41:21.020Z,31.09
2018-06-09T13:42:27.148Z,31.07
2018-06-09T13:43:32.780Z,31.22
2018-06-09T13:44:38.738Z,31.49
2018-06-09T13:45:44.699Z,31.71
2018-06-09T13:46:52.275Z,31.80
2018-06-09T13:47:58.743Z,31.79
2018-06-09T13:49:04.388Z,31.75
2018-06-09T13:50:10.499Z,31.37
2018-06-09T13:51:16.153Z,31.16
2018-06-09T13:52:22.080Z,30.98
2018-06-09T13:53:28.050Z,31.00
2018-06-09T13:54:34.054Z,31.12
2018-06-09T13:55:40.132Z,31.24
2018-06-09T13:56:45.985Z,31.22
2018-06-09T13:57:52.027Z,31.06
2018-06-09T13:58:58.058Z,31.00
2018-06-09T14:00:03.851Z,30.95
2018-06-09T14:01:09.818Z,30.88
2018-06-09T14:02:15.748Z,30.80
2018-06-09T14:03:21.730Z,30.71
2018-06-09T14:04:27.671Z,30.85
2018-06-09T14:05:33.592Z,31.10
2018-06-09T14:06:39.553Z,31.37
2018-06-09T14:07:45.466Z,31.56
2018-06-09T14:08:51.419Z,31.71
2018-06-09T14:09:57.458Z,31.78
2018-06-09T14:11:03.406Z,31.76
2018-06-09T14:12:09.107Z,31.70
2018-06-09T14:13:15.026Z,31.59
2018-06-09T14:14:21.115Z,31.51